Canyonville, Oregon
Current Conditions -  °F | °C
As of 3:53 PM on Friday 19 Dec 2014 (Local Time) from KRBG Reporting Station
Broken Clouds Broken Clouds  
Wind Chill: 54°   Ceiling: 5500
Heat Index: 54°   Visibility: 10mi
Dew Point: 43°   Wind: 5mph
Humidity: 66%   Direction: 190°S
Pressure: 30.01"   Gusts: NA
Location:  42.93°N, 123.28°W
Report Text: KRBG 192353Z AUTO 19004KT 10SM BKN055 BKN070 12/06 A3001 RMK AO2 RAB39E51 SLP162 P0000 60000 T01220061 10128 20089 55014
Loading
Personal Weather Stations






























Interactive Weather Map New forecast layout! Learn more

10-Day Weather Forecast

Advertisements
Track Severe Weather on mobile